sensor_id;sensor_type;location;lat;lon;timestamp;P1;durP1;ratioP1;P2;durP2;ratioP2
38224;SDS011;24025;48.138;11.428;2023-07-16T00:02:25;5.82;;;3.17;;
38224;SDS011;24025;48.138;11.428;2023-07-16T00:04:57;6.07;;;3.65;;
38224;SDS011;24025;48.138;11.428;2023-07-16T00:07:28;6.85;;;3.60;;
38224;SDS011;24025;48.138;11.428;2023-07-16T00:10:00;8.25;;;3.45;;
38224;SDS011;24025;48.138;11.428;2023-07-16T00:12:31;7.90;;;3.40;;
38224;SDS011;24025;48.138;11.428;2023-07-16T00:15:03;10.07;;;4.00;;
38224;SDS011;24025;48.138;11.428;2023-07-16T00:17:35;11.77;;;3.58;;
38224;SDS011;24025;48.138;11.428;2023-07-16T00:20:06;7.20;;;3.88;;
38224;SDS011;24025;48.138;11.428;2023-07-16T00:22:38;6.57;;;3.85;;
38224;SDS011;24025;48.138;11.428;2023-07-16T00:25:10;5.25;;;3.58;;
38224;SDS011;24025;48.138;11.428;2023-07-16T00:27:42;6.22;;;3.22;;
38224;SDS011;24025;48.138;11.428;2023-07-16T00:30:13;4.20;;;3.28;;
38224;SDS011;24025;48.138;11.428;2023-07-16T00:32:45;8.73;;;3.20;;
38224;SDS011;24025;48.138;11.428;2023-07-16T00:35:16;8.05;;;3.78;;
38224;SDS011;24025;48.138;11.428;2023-07-16T00:37:48;7.47;;;3.35;;
38224;SDS011;24025;48.138;11.428;2023-07-16T00:40:20;5.10;;;3.15;;
38224;SDS011;24025;48.138;11.428;2023-07-16T00:42:51;6.63;;;4.30;;
38224;SDS011;24025;48.138;11.428;2023-07-16T00:45:23;8.63;;;4.07;;
38224;SDS011;24025;48.138;11.428;2023-07-16T00:47:54;7.25;;;3.80;;
38224;SDS011;24025;48.138;11.428;2023-07-16T00:50:26;5.93;;;3.70;;
38224;SDS011;24025;48.138;11.428;2023-07-16T00:53:01;6.97;;;3.42;;
38224;SDS011;24025;48.138;11.428;2023-07-16T00:55:34;7.13;;;3.95;;
38224;SDS011;24025;48.138;11.428;2023-07-16T00:58:07;8.93;;;3.70;;
38224;SDS011;24025;48.138;11.428;2023-07-16T01:00:39;7.80;;;4.00;;
38224;SDS011;24025;48.138;11.428;2023-07-16T01:03:12;6.95;;;3.72;;
38224;SDS011;24025;48.138;11.428;2023-07-16T01:08:58;5.57;;;3.88;;
38224;SDS011;24025;48.138;11.428;2023-07-16T01:11:34;4.95;;;3.85;;
38224;SDS011;24025;48.138;11.428;2023-07-16T01:14:07;8.43;;;3.35;;
38224;SDS011;24025;48.138;11.428;2023-07-16T01:16:40;8.27;;;4.05;;
38224;SDS011;24025;48.138;11.428;2023-07-16T01:19:12;6.78;;;3.78;;
38224;SDS011;24025;48.138;11.428;2023-07-16T01:21:47;6.10;;;4.50;;
38224;SDS011;24025;48.138;11.428;2023-07-16T01:31:02;6.72;;;3.67;;
38224;SDS011;24025;48.138;11.428;2023-07-16T01:33:35;6.85;;;4.32;;
38224;SDS011;24025;48.138;11.428;2023-07-16T01:36:08;4.68;;;4.10;;
38224;SDS011;24025;48.138;11.428;2023-07-16T01:41:12;11.35;;;4.43;;
38224;SDS011;24025;48.138;11.428;2023-07-16T01:43:43;5.32;;;4.05;;
38224;SDS011;24025;48.138;11.428;2023-07-16T01:46:15;6.88;;;3.72;;
38224;SDS011;24025;48.138;11.428;2023-07-16T01:48:47;8.27;;;3.80;;
38224;SDS011;24025;48.138;11.428;2023-07-16T01:51:18;8.00;;;4.22;;
38224;SDS011;24025;48.138;11.428;2023-07-16T01:53:51;9.55;;;4.00;;
38224;SDS011;24025;48.138;11.428;2023-07-16T01:56:23;13.75;;;4.30;;
38224;SDS011;24025;48.138;11.428;2023-07-16T01:58:54;8.48;;;3.55;;
38224;SDS011;24025;48.138;11.428;2023-07-16T02:01:26;6.13;;;3.83;;
38224;SDS011;24025;48.138;11.428;2023-07-16T02:03:58;5.88;;;3.92;;
38224;SDS011;24025;48.138;11.428;2023-07-16T02:06:29;6.30;;;3.70;;
38224;SDS011;24025;48.138;11.428;2023-07-16T02:09:01;9.98;;;4.63;;
38224;SDS011;24025;48.138;11.428;2023-07-16T02:11:32;5.05;;;3.38;;
38224;SDS011;24025;48.138;11.428;2023-07-16T02:14:04;10.43;;;3.90;;
38224;SDS011;24025;48.138;11.428;2023-07-16T02:16:35;6.65;;;3.70;;
38224;SDS011;24025;48.138;11.428;2023-07-16T02:19:07;7.35;;;3.80;;
38224;SDS011;24025;48.138;11.428;2023-07-16T02:21:39;4.30;;;3.25;;
38224;SDS011;24025;48.138;11.428;2023-07-16T02:24:10;5.07;;;3.88;;
38224;SDS011;24025;48.138;11.428;2023-07-16T02:26:42;5.45;;;3.65;;
38224;SDS011;24025;48.138;11.428;2023-07-16T02:29:14;5.15;;;3.60;;
38224;SDS011;24025;48.138;11.428;2023-07-16T02:31:45;4.95;;;3.75;;
38224;SDS011;24025;48.138;11.428;2023-07-16T02:34:19;5.43;;;3.63;;
38224;SDS011;24025;48.138;11.428;2023-07-16T02:36:52;8.75;;;3.33;;
38224;SDS011;24025;48.138;11.428;2023-07-16T02:39:23;3.78;;;3.40;;
38224;SDS011;24025;48.138;11.428;2023-07-16T02:41:55;6.70;;;3.40;;
38224;SDS011;24025;48.138;11.428;2023-07-16T02:44:27;6.53;;;3.60;;
38224;SDS011;24025;48.138;11.428;2023-07-16T02:46:58;4.93;;;3.58;;
38224;SDS011;24025;48.138;11.428;2023-07-16T02:49:30;7.88;;;3.22;;
38224;SDS011;24025;48.138;11.428;2023-07-16T02:52:01;4.72;;;2.90;;
38224;SDS011;24025;48.138;11.428;2023-07-16T02:57:06;4.80;;;2.50;;
38224;SDS011;24025;48.138;11.428;2023-07-16T02:59:38;3.63;;;2.40;;
38224;SDS011;24025;48.138;11.428;2023-07-16T03:02:09;4.15;;;2.42;;
38224;SDS011;24025;48.138;11.428;2023-07-16T03:04:41;5.43;;;2.55;;
38224;SDS011;24025;48.138;11.428;2023-07-16T03:07:12;4.63;;;2.55;;
38224;SDS011;24025;48.138;11.428;2023-07-16T03:09:44;5.88;;;2.50;;
38224;SDS011;24025;48.138;11.428;2023-07-16T03:12:16;3.05;;;1.98;;
38224;SDS011;24025;48.138;11.428;2023-07-16T03:14:47;4.18;;;1.70;;
38224;SDS011;24025;48.138;11.428;2023-07-16T03:17:21;3.60;;;1.95;;
38224;SDS011;24025;48.138;11.428;2023-07-16T03:19:53;3.42;;;2.63;;
38224;SDS011;24025;48.138;11.428;2023-07-16T03:22:25;4.00;;;2.10;;
38224;SDS011;24025;48.138;11.428;2023-07-16T03:24:56;2.88;;;1.95;;
38224;SDS011;24025;48.138;11.428;2023-07-16T03:27:28;4.70;;;2.30;;
38224;SDS011;24025;48.138;11.428;2023-07-16T03:30:00;2.47;;;1.88;;
38224;SDS011;24025;48.138;11.428;2023-07-16T03:32:32;4.95;;;2.10;;
38224;SDS011;24025;48.138;11.428;2023-07-16T03:35:22;2.65;;;1.80;;
38224;SDS011;24025;48.138;11.428;2023-07-16T03:37:56;2.00;;;1.67;;
38224;SDS011;24025;48.138;11.428;2023-07-16T03:40:28;3.55;;;1.80;;
38224;SDS011;24025;48.138;11.428;2023-07-16T03:42:59;3.13;;;2.10;;
38224;SDS011;24025;48.138;11.428;2023-07-16T03:45:31;4.00;;;2.03;;
38224;SDS011;24025;48.138;11.428;2023-07-16T03:48:02;6.28;;;2.08;;
38224;SDS011;24025;48.138;11.428;2023-07-16T03:53:06;5.37;;;2.10;;
38224;SDS011;24025;48.138;11.428;2023-07-16T03:55:37;2.97;;;2.03;;
38224;SDS011;24025;48.138;11.428;2023-07-16T03:58:09;3.88;;;2.17;;
38224;SDS011;24025;48.138;11.428;2023-07-16T04:00:41;2.80;;;2.10;;
38224;SDS011;24025;48.138;11.428;2023-07-16T04:03:12;3.03;;;1.73;;
38224;SDS011;24025;48.138;11.428;2023-07-16T04:05:44;3.17;;;2.30;;
38224;SDS011;24025;48.138;11.428;2023-07-16T04:08:15;3.92;;;2.00;;
38224;SDS011;24025;48.138;11.428;2023-07-16T04:10:47;6.00;;;2.38;;
38224;SDS011;24025;48.138;11.428;2023-07-16T04:13:19;8.65;;;3.75;;
38224;SDS011;24025;48.138;11.428;2023-07-16T04:15:50;2.95;;;1.92;;
38224;SDS011;24025;48.138;11.428;2023-07-16T04:18:24;6.32;;;2.15;;
38224;SDS011;24025;48.138;11.428;2023-07-16T04:20:56;13.07;;;2.63;;
38224;SDS011;24025;48.138;11.428;2023-07-16T04:23:28;6.13;;;2.53;;
38224;SDS011;24025;48.138;11.428;2023-07-16T04:25:59;4.00;;;2.05;;
38224;SDS011;24025;48.138;11.428;2023-07-16T04:28:31;3.63;;;1.52;;
38224;SDS011;24025;48.138;11.428;2023-07-16T04:31:02;4.38;;;1.75;;
38224;SDS011;24025;48.138;11.428;2023-07-16T04:33:34;1.48;;;1.33;;
38224;SDS011;24025;48.138;11.428;2023-07-16T04:36:06;1.25;;;1.10;;
38224;SDS011;24025;48.138;11.428;2023-07-16T04:38:37;2.00;;;1.05;;
38224;SDS011;24025;48.138;11.428;2023-07-16T04:41:09;4.28;;;1.40;;
38224;SDS011;24025;48.138;11.428;2023-07-16T04:43:41;2.88;;;1.58;;
38224;SDS011;24025;48.138;11.428;2023-07-16T04:46:12;3.20;;;1.25;;
38224;SDS011;24025;48.138;11.428;2023-07-16T04:51:16;2.90;;;1.55;;
38224;SDS011;24025;48.138;11.428;2023-07-16T04:53:48;5.20;;;1.60;;
38224;SDS011;24025;48.138;11.428;2023-07-16T04:56:20;4.03;;;1.50;;
38224;SDS011;24025;48.138;11.428;2023-07-16T04:58:52;3.53;;;1.50;;
38224;SDS011;24025;48.138;11.428;2023-07-16T05:01:23;2.47;;;1.58;;
38224;SDS011;24025;48.138;11.428;2023-07-16T05:03:56;2.85;;;1.27;;
38224;SDS011;24025;48.138;11.428;2023-07-16T05:06:28;2.08;;;1.88;;
38224;SDS011;24025;48.138;11.428;2023-07-16T05:08:59;4.07;;;1.52;;
38224;SDS011;24025;48.138;11.428;2023-07-16T05:11:31;3.58;;;1.80;;
38224;SDS011;24025;48.138;11.428;2023-07-16T05:14:04;1.80;;;1.60;;
38224;SDS011;24025;48.138;11.428;2023-07-16T05:16:36;1.63;;;1.33;;
38224;SDS011;24025;48.138;11.428;2023-07-16T05:19:07;1.40;;;1.30;;
38224;SDS011;24025;48.138;11.428;2023-07-16T05:21:39;2.30;;;1.45;;
38224;SDS011;24025;48.138;11.428;2023-07-16T05:24:11;1.65;;;1.55;;
38224;SDS011;24025;48.138;11.428;2023-07-16T05:26:42;5.00;;;2.08;;
38224;SDS011;24025;48.138;11.428;2023-07-16T05:29:14;3.03;;;1.45;;
38224;SDS011;24025;48.138;11.428;2023-07-16T05:31:45;2.92;;;1.58;;
38224;SDS011;24025;48.138;11.428;2023-07-16T05:34:17;2.28;;;1.60;;
38224;SDS011;24025;48.138;11.428;2023-07-16T05:36:49;2.28;;;1.58;;
38224;SDS011;24025;48.138;11.428;2023-07-16T05:39:24;3.17;;;1.98;;
38224;SDS011;24025;48.138;11.428;2023-07-16T05:41:55;5.18;;;1.50;;
38224;SDS011;24025;48.138;11.428;2023-07-16T05:44:27;1.63;;;1.52;;
38224;SDS011;24025;48.138;11.428;2023-07-16T05:46:59;1.73;;;1.50;;
38224;SDS011;24025;48.138;11.428;2023-07-16T05:49:31;2.80;;;0.90;;
38224;SDS011;24025;48.138;11.428;2023-07-16T05:52:03;3.15;;;1.80;;
38224;SDS011;24025;48.138;11.428;2023-07-16T05:54:34;2.42;;;1.23;;
38224;SDS011;24025;48.138;11.428;2023-07-16T05:57:06;3.40;;;1.65;;
38224;SDS011;24025;48.138;11.428;2023-07-16T05:59:38;2.25;;;1.38;;
38224;SDS011;24025;48.138;11.428;2023-07-16T06:02:09;3.30;;;1.58;;
38224;SDS011;24025;48.138;11.428;2023-07-16T06:04:41;6.10;;;1.60;;
38224;SDS011;24025;48.138;11.428;2023-07-16T06:07:12;2.75;;;1.73;;
38224;SDS011;24025;48.138;11.428;2023-07-16T06:12:16;3.70;;;1.45;;
38224;SDS011;24025;48.138;11.428;2023-07-16T06:14:47;1.85;;;1.60;;
38224;SDS011;24025;48.138;11.428;2023-07-16T06:17:19;3.30;;;1.88;;
38224;SDS011;24025;48.138;11.428;2023-07-16T06:19:50;2.47;;;1.83;;
38224;SDS011;24025;48.138;11.428;2023-07-16T06:22:23;6.50;;;2.22;;
38224;SDS011;24025;48.138;11.428;2023-07-16T06:24:54;2.45;;;1.58;;
38224;SDS011;24025;48.138;11.428;2023-07-16T06:27:26;2.72;;;2.00;;
38224;SDS011;24025;48.138;11.428;2023-07-16T06:29:57;4.60;;;1.73;;
38224;SDS011;24025;48.138;11.428;2023-07-16T06:32:29;2.42;;;1.92;;
38224;SDS011;24025;48.138;11.428;2023-07-16T06:35:01;2.67;;;1.63;;
38224;SDS011;24025;48.138;11.428;2023-07-16T06:37:32;1.10;;;1.00;;
38224;SDS011;24025;48.138;11.428;2023-07-16T06:40:04;3.95;;;0.88;;
38224;SDS011;24025;48.138;11.428;2023-07-16T06:42:36;1.25;;;0.80;;
38224;SDS011;24025;48.138;11.428;2023-07-16T06:45:08;5.78;;;1.00;;
38224;SDS011;24025;48.138;11.428;2023-07-16T06:47:42;0.88;;;0.80;;
38224;SDS011;24025;48.138;11.428;2023-07-16T06:50:14;4.80;;;0.70;;
38224;SDS011;24025;48.138;11.428;2023-07-16T06:52:46;1.63;;;0.68;;
38224;SDS011;24025;48.138;11.428;2023-07-16T06:55:17;5.85;;;0.80;;
38224;SDS011;24025;48.138;11.428;2023-07-16T06:57:49;1.30;;;0.90;;
38224;SDS011;24025;48.138;11.428;2023-07-16T07:00:20;1.52;;;0.65;;
38224;SDS011;24025;48.138;11.428;2023-07-16T07:02:54;1.10;;;0.90;;
38224;SDS011;24025;48.138;11.428;2023-07-16T07:05:26;2.45;;;1.08;;
38224;SDS011;24025;48.138;11.428;2023-07-16T07:07:57;1.25;;;0.80;;
38224;SDS011;24025;48.138;11.428;2023-07-16T07:10:29;1.40;;;0.90;;
38224;SDS011;24025;48.138;11.428;2023-07-16T07:13:00;1.95;;;1.02;;
38224;SDS011;24025;48.138;11.428;2023-07-16T07:15:32;2.13;;;1.05;;
38224;SDS011;24025;48.138;11.428;2023-07-16T07:18:03;2.38;;;1.05;;
38224;SDS011;24025;48.138;11.428;2023-07-16T07:20:35;4.72;;;1.00;;
38224;SDS011;24025;48.138;11.428;2023-07-16T07:23:07;5.13;;;1.20;;
38224;SDS011;24025;48.138;11.428;2023-07-16T07:28:10;1.40;;;0.98;;
38224;SDS011;24025;48.138;11.428;2023-07-16T07:30:42;1.92;;;0.98;;
38224;SDS011;24025;48.138;11.428;2023-07-16T07:33:13;0.95;;;0.85;;
38224;SDS011;24025;48.138;11.428;2023-07-16T07:35:45;1.38;;;0.80;;
38224;SDS011;24025;48.138;11.428;2023-07-16T07:38:16;1.75;;;0.98;;
38224;SDS011;24025;48.138;11.428;2023-07-16T07:40:48;2.08;;;0.90;;
38224;SDS011;24025;48.138;11.428;2023-07-16T07:43:19;2.50;;;1.02;;
38224;SDS011;24025;48.138;11.428;2023-07-16T07:45:51;2.05;;;1.08;;
38224;SDS011;24025;48.138;11.428;2023-07-16T07:48:23;3.75;;;1.05;;
38224;SDS011;24025;48.138;11.428;2023-07-16T07:50:55;1.52;;;1.15;;
38224;SDS011;24025;48.138;11.428;2023-07-16T07:53:27;1.52;;;0.93;;
38224;SDS011;24025;48.138;11.428;2023-07-16T07:55:59;1.50;;;1.13;;
38224;SDS011;24025;48.138;11.428;2023-07-16T07:58:30;1.52;;;1.10;;
38224;SDS011;24025;48.138;11.428;2023-07-16T08:01:08;0.70;;;0.65;;
38224;SDS011;24025;48.138;11.428;2023-07-16T08:03:40;1.90;;;0.90;;
38224;SDS011;24025;48.138;11.428;2023-07-16T08:06:12;0.93;;;0.73;;
38224;SDS011;24025;48.138;11.428;2023-07-16T08:08:44;2.15;;;0.60;;
38224;SDS011;24025;48.138;11.428;2023-07-16T08:11:15;2.30;;;0.85;;
38224;SDS011;24025;48.138;11.428;2023-07-16T08:13:47;1.23;;;0.85;;
38224;SDS011;24025;48.138;11.428;2023-07-16T08:16:20;1.08;;;0.80;;
38224;SDS011;24025;48.138;11.428;2023-07-16T08:18:55;0.73;;;0.73;;
38224;SDS011;24025;48.138;11.428;2023-07-16T08:21:26;3.00;;;0.77;;
38224;SDS011;24025;48.138;11.428;2023-07-16T08:23:58;1.73;;;1.00;;
38224;SDS011;24025;48.138;11.428;2023-07-16T08:26:29;2.28;;;0.98;;
38224;SDS011;24025;48.138;11.428;2023-07-16T08:29:01;2.90;;;0.90;;
38224;SDS011;24025;48.138;11.428;2023-07-16T08:31:33;1.35;;;0.90;;
38224;SDS011;24025;48.138;11.428;2023-07-16T08:34:05;1.20;;;0.70;;
38224;SDS011;24025;48.138;11.428;2023-07-16T08:36:37;4.50;;;0.80;;
38224;SDS011;24025;48.138;11.428;2023-07-16T08:39:11;1.48;;;0.80;;
38224;SDS011;24025;48.138;11.428;2023-07-16T08:41:43;0.80;;;0.60;;
38224;SDS011;24025;48.138;11.428;2023-07-16T08:44:15;3.00;;;0.90;;
38224;SDS011;24025;48.138;11.428;2023-07-16T08:49:18;0.70;;;0.50;;
38224;SDS011;24025;48.138;11.428;2023-07-16T08:51:53;0.90;;;0.70;;
38224;SDS011;24025;48.138;11.428;2023-07-16T08:54:25;4.03;;;0.60;;
38224;SDS011;24025;48.138;11.428;2023-07-16T08:56:57;1.50;;;0.60;;
38224;SDS011;24025;48.138;11.428;2023-07-16T08:59:30;2.78;;;0.70;;
38224;SDS011;24025;48.138;11.428;2023-07-16T09:04:34;1.38;;;0.88;;
38224;SDS011;24025;48.138;11.428;2023-07-16T09:07:05;2.47;;;0.60;;
38224;SDS011;24025;48.138;11.428;2023-07-16T09:09:37;1.50;;;0.90;;
38224;SDS011;24025;48.138;11.428;2023-07-16T09:12:12;2.08;;;0.60;;
38224;SDS011;24025;48.138;11.428;2023-07-16T09:14:44;1.80;;;0.80;;
38224;SDS011;24025;48.138;11.428;2023-07-16T09:17:24;0.85;;;0.57;;
38224;SDS011;24025;48.138;11.428;2023-07-16T09:19:56;0.90;;;0.77;;
38224;SDS011;24025;48.138;11.428;2023-07-16T09:22:29;0.90;;;0.60;;
38224;SDS011;24025;48.138;11.428;2023-07-16T09:25:01;1.35;;;0.73;;
38224;SDS011;24025;48.138;11.428;2023-07-16T09:30:04;1.70;;;0.95;;
38224;SDS011;24025;48.138;11.428;2023-07-16T09:32:38;2.42;;;0.85;;
38224;SDS011;24025;48.138;11.428;2023-07-16T09:35:13;1.23;;;0.70;;
38224;SDS011;24025;48.138;11.428;2023-07-16T09:37:46;0.88;;;0.77;;
38224;SDS011;24025;48.138;11.428;2023-07-16T09:40:18;2.78;;;0.68;;
38224;SDS011;24025;48.138;11.428;2023-07-16T09:45:22;1.08;;;0.65;;
38224;SDS011;24025;48.138;11.428;2023-07-16T09:47:53;0.88;;;0.70;;
38224;SDS011;24025;48.138;11.428;2023-07-16T09:50:27;1.17;;;0.85;;
38224;SDS011;24025;48.138;11.428;2023-07-16T09:53:04;1.42;;;0.80;;
38224;SDS011;24025;48.138;11.428;2023-07-16T09:55:36;2.60;;;1.00;;
38224;SDS011;24025;48.138;11.428;2023-07-16T09:58:09;1.58;;;0.95;;
38224;SDS011;24025;48.138;11.428;2023-07-16T10:00:42;1.40;;;0.65;;
38224;SDS011;24025;48.138;11.428;2023-07-16T10:03:15;1.02;;;0.90;;
38224;SDS011;24025;48.138;11.428;2023-07-16T10:05:48;2.45;;;1.10;;
38224;SDS011;24025;48.138;11.428;2023-07-16T10:08:20;1.05;;;0.80;;
38224;SDS011;24025;48.138;11.428;2023-07-16T10:10:56;1.17;;;0.90;;
38224;SDS011;24025;48.138;11.428;2023-07-16T10:13:30;2.13;;;0.93;;
38224;SDS011;24025;48.138;11.428;2023-07-16T10:16:05;0.95;;;0.70;;
38224;SDS011;24025;48.138;11.428;2023-07-16T10:18:49;1.33;;;0.70;;
38224;SDS011;24025;48.138;11.428;2023-07-16T10:21:24;3.22;;;0.77;;
38224;SDS011;24025;48.138;11.428;2023-07-16T10:23:59;2.47;;;2.28;;
38224;SDS011;24025;48.138;11.428;2023-07-16T10:26:31;3.85;;;1.50;;
38224;SDS011;24025;48.138;11.428;2023-07-16T10:29:02;1.00;;;0.90;;
38224;SDS011;24025;48.138;11.428;2023-07-16T10:34:07;1.40;;;0.80;;
38224;SDS011;24025;48.138;11.428;2023-07-16T10:36:40;1.83;;;0.75;;
38224;SDS011;24025;48.138;11.428;2023-07-16T10:39:12;1.95;;;1.00;;
38224;SDS011;24025;48.138;11.428;2023-07-16T10:44:15;1.92;;;0.82;;
38224;SDS011;24025;48.138;11.428;2023-07-16T10:46:47;0.70;;;0.70;;
38224;SDS011;24025;48.138;11.428;2023-07-16T10:49:28;1.40;;;0.80;;
38224;SDS011;24025;48.138;11.428;2023-07-16T10:52:00;2.08;;;0.70;;
38224;SDS011;24025;48.138;11.428;2023-07-16T10:54:32;3.30;;;0.90;;
38224;SDS011;24025;48.138;11.428;2023-07-16T10:57:04;2.25;;;1.08;;
38224;SDS011;24025;48.138;11.428;2023-07-16T10:59:39;3.92;;;1.05;;
38224;SDS011;24025;48.138;11.428;2023-07-16T11:02:12;1.40;;;0.98;;
38224;SDS011;24025;48.138;11.428;2023-07-16T11:04:45;3.45;;;1.08;;
38224;SDS011;24025;48.138;11.428;2023-07-16T11:07:21;3.70;;;1.00;;
38224;SDS011;24025;48.138;11.428;2023-07-16T11:09:54;0.93;;;0.75;;
38224;SDS011;24025;48.138;11.428;2023-07-16T11:12:26;2.05;;;1.20;;
38224;SDS011;24025;48.138;11.428;2023-07-16T11:14:57;0.82;;;0.80;;
38224;SDS011;24025;48.138;11.428;2023-07-16T11:20:01;0.80;;;0.80;;
38224;SDS011;24025;48.138;11.428;2023-07-16T11:22:36;0.82;;;0.82;;
38224;SDS011;24025;48.138;11.428;2023-07-16T11:25:12;1.63;;;0.93;;
38224;SDS011;24025;48.138;11.428;2023-07-16T11:27:44;1.42;;;1.02;;
38224;SDS011;24025;48.138;11.428;2023-07-16T11:30:21;1.92;;;1.00;;
38224;SDS011;24025;48.138;11.428;2023-07-16T11:32:54;2.20;;;0.80;;
38224;SDS011;24025;48.138;11.428;2023-07-16T11:35:29;0.90;;;0.73;;
38224;SDS011;24025;48.138;11.428;2023-07-16T11:38:00;0.80;;;0.77;;
38224;SDS011;24025;48.138;11.428;2023-07-16T11:40:33;2.00;;;1.38;;
38224;SDS011;24025;48.138;11.428;2023-07-16T11:43:07;1.83;;;1.00;;
38224;SDS011;24025;48.138;11.428;2023-07-16T11:45:46;0.80;;;0.80;;
38224;SDS011;24025;48.138;11.428;2023-07-16T11:48:20;1.33;;;1.00;;
38224;SDS011;24025;48.138;11.428;2023-07-16T11:53:23;1.25;;;1.13;;
38224;SDS011;24025;48.138;11.428;2023-07-16T11:58:26;1.13;;;1.02;;
38224;SDS011;24025;48.138;11.428;2023-07-16T12:03:29;1.85;;;1.10;;
38224;SDS011;24025;48.138;11.428;2023-07-16T12:06:01;2.70;;;0.98;;
38224;SDS011;24025;48.138;11.428;2023-07-16T12:11:04;2.55;;;1.10;;
38224;SDS011;24025;48.138;11.428;2023-07-16T12:16:07;4.78;;;0.98;;
38224;SDS011;24025;48.138;11.428;2023-07-16T12:18:39;1.20;;;0.93;;
38224;SDS011;24025;48.138;11.428;2023-07-16T12:23:42;2.22;;;1.00;;
38224;SDS011;24025;48.138;11.428;2023-07-16T12:26:14;1.17;;;0.90;;
38224;SDS011;24025;48.138;11.428;2023-07-16T12:28:46;1.92;;;1.20;;
38224;SDS011;24025;48.138;11.428;2023-07-16T12:31:17;3.72;;;1.67;;
38224;SDS011;24025;48.138;11.428;2023-07-16T12:33:50;3.72;;;1.20;;
38224;SDS011;24025;48.138;11.428;2023-07-16T12:36:24;3.22;;;1.73;;
38224;SDS011;24025;48.138;11.428;2023-07-16T12:38:56;1.25;;;0.90;;
38224;SDS011;24025;48.138;11.428;2023-07-16T12:41:28;1.50;;;1.05;;
38224;SDS011;24025;48.138;11.428;2023-07-16T12:43:59;2.05;;;1.30;;
38224;SDS011;24025;48.138;11.428;2023-07-16T12:49:03;2.92;;;1.30;;
38224;SDS011;24025;48.138;11.428;2023-07-16T12:54:06;1.17;;;1.08;;
38224;SDS011;24025;48.138;11.428;2023-07-16T12:56:37;1.30;;;1.17;;
38224;SDS011;24025;48.138;11.428;2023-07-16T12:59:10;4.20;;;1.38;;
38224;SDS011;24025;48.138;11.428;2023-07-16T13:01:42;3.35;;;1.20;;
38224;SDS011;24025;48.138;11.428;2023-07-16T13:04:15;1.35;;;1.15;;
38224;SDS011;24025;48.138;11.428;2023-07-16T13:06:46;1.30;;;1.20;;
38224;SDS011;24025;48.138;11.428;2023-07-16T13:09:18;2.88;;;1.20;;
38224;SDS011;24025;48.138;11.428;2023-07-16T13:11:50;1.58;;;1.10;;
38224;SDS011;24025;48.138;11.428;2023-07-16T13:14:23;4.07;;;2.13;;
38224;SDS011;24025;48.138;11.428;2023-07-16T13:16:55;1.40;;;1.17;;
38224;SDS011;24025;48.138;11.428;2023-07-16T13:19:26;1.98;;;1.30;;
38224;SDS011;24025;48.138;11.428;2023-07-16T13:21:58;1.48;;;1.10;;
38224;SDS011;24025;48.138;11.428;2023-07-16T13:24:29;2.05;;;0.95;;
38224;SDS011;24025;48.138;11.428;2023-07-16T13:27:01;1.48;;;1.00;;
38224;SDS011;24025;48.138;11.428;2023-07-16T13:29:33;1.23;;;0.95;;
38224;SDS011;24025;48.138;11.428;2023-07-16T13:32:05;3.80;;;1.20;;
38224;SDS011;24025;48.138;11.428;2023-07-16T13:34:37;2.70;;;1.25;;
38224;SDS011;24025;48.138;11.428;2023-07-16T13:37:09;2.22;;;1.50;;
38224;SDS011;24025;48.138;11.428;2023-07-16T13:39:40;2.25;;;1.35;;
38224;SDS011;24025;48.138;11.428;2023-07-16T13:42:12;1.88;;;1.00;;
38224;SDS011;24025;48.138;11.428;2023-07-16T13:44:54;1.48;;;1.33;;
38224;SDS011;24025;48.138;11.428;2023-07-16T13:47:25;2.28;;;1.17;;
38224;SDS011;24025;48.138;11.428;2023-07-16T13:50:00;1.50;;;1.38;;
38224;SDS011;24025;48.138;11.428;2023-07-16T13:52:32;1.40;;;1.08;;
38224;SDS011;24025;48.138;11.428;2023-07-16T13:57:36;1.63;;;1.20;;
38224;SDS011;24025;48.138;11.428;2023-07-16T14:00:07;1.45;;;1.35;;
38224;SDS011;24025;48.138;11.428;2023-07-16T14:02:42;1.30;;;1.20;;
38224;SDS011;24025;48.138;11.428;2023-07-16T14:05:14;1.20;;;1.05;;
38224;SDS011;24025;48.138;11.428;2023-07-16T14:07:45;1.85;;;1.05;;
38224;SDS011;24025;48.138;11.428;2023-07-16T14:10:18;1.10;;;1.00;;
38224;SDS011;24025;48.138;11.428;2023-07-16T14:12:49;1.15;;;1.02;;
38224;SDS011;24025;48.138;11.428;2023-07-16T14:15:21;4.93;;;1.50;;
38224;SDS011;24025;48.138;11.428;2023-07-16T14:20:24;1.48;;;1.20;;
38224;SDS011;24025;48.138;11.428;2023-07-16T14:25:27;3.22;;;1.10;;
38224;SDS011;24025;48.138;11.428;2023-07-16T14:27:58;1.55;;;1.08;;
38224;SDS011;24025;48.138;11.428;2023-07-16T14:30:30;2.75;;;1.10;;
38224;SDS011;24025;48.138;11.428;2023-07-16T14:35:35;2.22;;;1.30;;
38224;SDS011;24025;48.138;11.428;2023-07-16T14:38:08;1.40;;;1.30;;
38224;SDS011;24025;48.138;11.428;2023-07-16T14:40:40;1.30;;;1.10;;
38224;SDS011;24025;48.138;11.428;2023-07-16T14:43:13;1.50;;;1.13;;
38224;SDS011;24025;48.138;11.428;2023-07-16T14:45:45;2.65;;;1.13;;
38224;SDS011;24025;48.138;11.428;2023-07-16T14:50:48;3.08;;;1.00;;
38224;SDS011;24025;48.138;11.428;2023-07-16T14:53:21;1.73;;;1.30;;
38224;SDS011;24025;48.138;11.428;2023-07-16T14:55:53;2.65;;;1.33;;
38224;SDS011;24025;48.138;11.428;2023-07-16T14:58:24;1.48;;;1.17;;
38224;SDS011;24025;48.138;11.428;2023-07-16T15:00:58;1.80;;;1.10;;
38224;SDS011;24025;48.138;11.428;2023-07-16T15:03:31;0.95;;;0.88;;
38224;SDS011;24025;48.138;11.428;2023-07-16T15:06:03;2.42;;;1.20;;
38224;SDS011;24025;48.138;11.428;2023-07-16T15:08:35;1.35;;;1.20;;
38224;SDS011;24025;48.138;11.428;2023-07-16T15:11:06;3.25;;;0.95;;
38224;SDS011;24025;48.138;11.428;2023-07-16T15:13:38;1.30;;;1.13;;
38224;SDS011;24025;48.138;11.428;2023-07-16T15:16:09;1.13;;;0.95;;
38224;SDS011;24025;48.138;11.428;2023-07-16T15:18:44;6.25;;;1.50;;
38224;SDS011;24025;48.138;11.428;2023-07-16T15:21:16;1.90;;;1.30;;
38224;SDS011;24025;48.138;11.428;2023-07-16T15:23:48;2.40;;;1.42;;
38224;SDS011;24025;48.138;11.428;2023-07-16T15:26:19;1.63;;;1.20;;
38224;SDS011;24025;48.138;11.428;2023-07-16T15:28:52;3.05;;;1.15;;
38224;SDS011;24025;48.138;11.428;2023-07-16T15:31:24;2.47;;;1.15;;
38224;SDS011;24025;48.138;11.428;2023-07-16T15:33:59;2.92;;;1.10;;
38224;SDS011;24025;48.138;11.428;2023-07-16T15:36:31;1.23;;;1.08;;
38224;SDS011;24025;48.138;11.428;2023-07-16T15:39:02;1.33;;;1.05;;
38224;SDS011;24025;48.138;11.428;2023-07-16T15:44:05;4.03;;;1.40;;
38224;SDS011;24025;48.138;11.428;2023-07-16T15:46:37;2.28;;;1.08;;
38224;SDS011;24025;48.138;11.428;2023-07-16T15:49:11;1.23;;;1.13;;
38224;SDS011;24025;48.138;11.428;2023-07-16T15:51:43;1.55;;;1.40;;
38224;SDS011;24025;48.138;11.428;2023-07-16T15:54:14;2.35;;;1.20;;
38224;SDS011;24025;48.138;11.428;2023-07-16T15:56:46;4.28;;;1.10;;
38224;SDS011;24025;48.138;11.428;2023-07-16T15:59:18;2.05;;;1.02;;
38224;SDS011;24025;48.138;11.428;2023-07-16T16:01:50;1.00;;;0.90;;
38224;SDS011;24025;48.138;11.428;2023-07-16T16:04:21;5.78;;;1.25;;
38224;SDS011;24025;48.138;11.428;2023-07-16T16:06:53;2.45;;;1.60;;
38224;SDS011;24025;48.138;11.428;2023-07-16T16:09:25;1.25;;;1.00;;
38224;SDS011;24025;48.138;11.428;2023-07-16T16:11:56;1.90;;;1.20;;
38224;SDS011;24025;48.138;11.428;2023-07-16T16:14:30;3.67;;;1.25;;
38224;SDS011;24025;48.138;11.428;2023-07-16T16:17:02;1.50;;;1.40;;
38224;SDS011;24025;48.138;11.428;2023-07-16T16:19:38;1.48;;;1.23;;
38224;SDS011;24025;48.138;11.428;2023-07-16T16:22:12;3.47;;;1.42;;